Time;durP1;ratioP1;P1;durP2;ratioP2;P2;SDS_P1;SDS_P2;PMS_P1;PMS_P2;Temp;Humidity;BMP_temperature;BMP_pressure;BME280_temperature;BME280_humidity;BME280_pressure;Samples;Min_cycle;Max_cycle;Signal;HPM_P1;HPM_P2
2021/08/22 00:02:28;;;;;;;1.20;1.20;;;22.50;94.90;;;;;;5042708;28;20515;-40
2021/08/22 00:04:59;;;;;;;1.20;1.20;;;22.60;94.50;;;;;;5054323;28;20468;-40
2021/08/22 00:07:32;;;;;;;1.57;1.47;;;22.50;94.80;;;;;;5061563;28;20420;-39
2021/08/22 00:10:03;;;;;;;1.77;1.20;;;22.70;93.50;;;;;;5049334;28;20473;-42
2021/08/22 00:12:34;;;;;;;1.20;1.10;;;22.70;93.00;;;;;;5052625;28;20513;-39
2021/08/22 00:15:06;;;;;;;1.93;1.83;;;22.70;93.60;;;;;;5064264;27;20505;-39
2021/08/22 00:17:37;;;;;;;2.43;1.73;;;22.80;93.30;;;;;;5045766;28;20488;-39
2021/08/22 00:20:09;;;;;;;1.20;1.20;;;22.80;93.80;;;;;;5052643;28;20476;-43
2021/08/22 00:22:42;;;;;;;1.50;1.40;;;22.60;94.70;;;;;;5050483;28;20444;-44
2021/08/22 00:25:13;;;;;;;1.87;1.53;;;22.60;94.60;;;;;;5039801;28;20511;-41
2021/08/22 00:27:44;;;;;;;1.30;1.20;;;22.70;93.30;;;;;;5043232;28;20494;-46
2021/08/22 00:30:16;;;;;;;2.50;1.10;;;22.80;93.60;;;;;;5041207;28;20571;-46
2021/08/22 00:32:47;;;;;;;3.47;1.57;;;22.80;93.60;;;;;;5043144;28;20952;-40
2021/08/22 00:35:18;;;;;;;2.10;1.43;;;22.70;93.80;;;;;;5041564;28;20557;-45
2021/08/22 00:37:51;;;;;;;2.20;1.43;;;22.80;94.30;;;;;;5046537;28;20778;-48
2021/08/22 00:40:22;;;;;;;1.70;1.60;;;22.80;93.70;;;;;;5045774;28;20449;-43
2021/08/22 00:42:53;;;;;;;2.53;1.60;;;22.70;93.90;;;;;;5041522;28;20457;-40
2021/08/22 00:45:25;;;;;;;1.40;1.30;;;22.70;94.10;;;;;;5034102;28;20458;-45
2021/08/22 00:47:58;;;;;;;1.57;1.30;;;22.80;94.40;;;;;;5057043;28;20453;-41
2021/08/22 00:50:29;;;;;;;1.90;1.53;;;22.60;94.30;;;;;;5055991;28;20476;-42
2021/08/22 00:53:03;;;;;;;1.67;1.57;;;22.70;93.80;;;;;;5052676;28;20444;-42
2021/08/22 00:55:34;;;;;;;2.80;1.70;;;22.70;93.70;;;;;;5046968;28;20488;-43
2021/08/22 00:58:05;;;;;;;2.20;1.97;;;22.70;94.20;;;;;;5042520;28;20445;-40
2021/08/22 01:00:37;;;;;;;1.70;1.50;;;22.50;94.60;;;;;;5034821;28;20455;-39
2021/08/22 01:03:17;;;;;;;3.57;1.40;;;22.30;94.60;;;;;;5040466;28;20471;-46
2021/08/22 01:06:03;;;;;;;3.57;1.27;;;22.40;94.50;;;;;;5040357;28;20476;-39
2021/08/22 01:08:38;;;;;;;2.80;1.70;;;22.30;94.80;;;;;;5032858;28;20447;-41
2021/08/22 01:11:14;;;;;;;1.90;1.40;;;22.20;94.60;;;;;;5049247;28;20410;-40
2021/08/22 01:13:49;;;;;;;1.03;1.03;;;22.20;94.80;;;;;;5041042;28;20438;-43
2021/08/22 01:16:21;;;;;;;1.97;1.80;;;22.20;95.30;;;;;;5077352;27;20574;-41
2021/08/22 01:18:57;;;;;;;3.00;1.60;;;22.10;95.10;;;;;;5040879;28;20457;-39
2021/08/22 01:21:29;;;;;;;2.50;1.60;;;22.10;95.20;;;;;;5050435;28;20495;-39
2021/08/22 01:24:04;;;;;;;2.10;1.90;;;22.00;95.30;;;;;;5040142;28;20454;-39
2021/08/22 01:26:40;;;;;;;1.70;1.60;;;21.90;95.80;;;;;;5038666;28;20475;-42
2021/08/22 01:29:12;;;;;;;1.60;1.50;;;21.90;95.50;;;;;;5041998;28;21259;-40
2021/08/22 01:31:48;;;;;;;2.60;1.70;;;21.90;95.60;;;;;;5059850;28;20528;-42
2021/08/22 01:34:22;;;;;;;1.63;1.53;;;22.00;95.10;;;;;;5059975;28;20705;-41
2021/08/22 01:36:54;;;;;;;2.20;2.00;;;21.90;95.50;;;;;;5044091;28;20432;-38
2021/08/22 01:39:25;;;;;;;1.80;1.70;;;21.80;96.20;;;;;;5041117;28;20432;-39
2021/08/22 01:41:56;;;;;;;1.90;1.80;;;21.80;95.70;;;;;;5059684;28;20415;-41
2021/08/22 01:44:28;;;;;;;3.03;1.77;;;21.60;96.00;;;;;;5051540;28;20423;-42
2021/08/22 01:46:59;;;;;;;2.27;1.97;;;21.70;96.40;;;;;;5059620;28;20465;-46
2021/08/22 01:49:32;;;;;;;2.20;2.03;;;21.80;95.80;;;;;;5053515;28;20464;-42
2021/08/22 01:52:04;;;;;;;2.40;2.20;;;21.70;96.10;;;;;;5061264;27;20428;-46
2021/08/22 01:54:36;;;;;;;1.83;1.57;;;21.60;96.20;;;;;;5038630;28;20449;-41
2021/08/22 01:57:07;;;;;;;2.80;1.77;;;21.50;95.90;;;;;;5039024;28;20457;-39
2021/08/22 01:59:38;;;;;;;2.40;1.37;;;21.50;96.30;;;;;;5039838;28;20423;-43
2021/08/22 02:02:09;;;;;;;1.87;1.50;;;21.20;97.10;;;;;;5062925;27;20940;-40
2021/08/22 02:04:48;;;;;;;1.73;1.63;;;21.30;97.10;;;;;;5058238;28;20423;-40
2021/08/22 02:07:21;;;;;;;1.50;1.40;;;21.20;97.50;;;;;;5039744;28;20939;-39
2021/08/22 02:09:58;;;;;;;2.70;2.00;;;21.20;97.80;;;;;;5045228;28;20484;-43
2021/08/22 02:12:29;;;;;;;2.03;1.40;;;21.10;98.10;;;;;;5042752;28;20572;-41
2021/08/22 02:15:03;;;;;;;2.17;1.77;;;21.00;98.10;;;;;;5027245;28;20469;-43
2021/08/22 02:17:44;;;;;;;1.90;1.80;;;21.00;98.30;;;;;;5043183;28;20466;-46
2021/08/22 02:20:19;;;;;;;1.67;1.57;;;21.00;98.50;;;;;;5044775;28;20948;-40
2021/08/22 02:22:51;;;;;;;1.70;1.60;;;20.90;98.50;;;;;;5044877;28;20424;-38
2021/08/22 02:25:24;;;;;;;3.57;1.60;;;20.90;98.50;;;;;;5042756;28;20435;-40
2021/08/22 02:27:56;;;;;;;2.13;1.40;;;20.80;98.70;;;;;;5058353;28;20513;-39
2021/08/22 02:30:27;;;;;;;1.93;1.73;;;20.80;99.20;;;;;;5041612;28;20464;-39
2021/08/22 02:32:58;;;;;;;2.53;1.37;;;20.70;99.40;;;;;;5040028;28;20441;-42
2021/08/22 02:35:31;;;;;;;1.40;1.23;;;20.70;99.30;;;;;;5030019;28;20449;-41
2021/08/22 02:38:02;;;;;;;1.43;1.33;;;20.70;99.50;;;;;;5048993;28;20452;-42
2021/08/22 02:40:33;;;;;;;1.73;1.53;;;20.60;99.70;;;;;;5038293;28;20445;-40
2021/08/22 02:43:05;;;;;;;1.63;1.53;;;20.60;99.90;;;;;;5058524;28;20460;-42
2021/08/22 02:45:35;;;;;;;1.40;1.10;;;20.40;99.90;;;;;;5045714;28;20491;-42
2021/08/22 02:48:07;;;;;;;1.80;1.30;;;20.40;99.90;;;;;;5057680;28;20844;-42
2021/08/22 02:50:40;;;;;;;1.67;1.50;;;20.40;99.90;;;;;;5057394;28;20454;-39
2021/08/22 02:53:11;;;;;;;1.43;1.33;;;20.40;99.90;;;;;;5035527;28;20484;-42
2021/08/22 02:55:42;;;;;;;1.20;1.10;;;20.40;99.90;;;;;;5043710;28;20427;-41
2021/08/22 02:58:14;;;;;;;1.40;1.33;;;20.30;99.90;;;;;;5039593;28;20449;-43
2021/08/22 03:00:44;;;;;;;2.50;1.30;;;20.20;99.90;;;;;;5049779;28;20415;-41
2021/08/22 03:03:16;;;;;;;1.63;1.30;;;20.00;99.90;;;;;;5048371;28;20450;-41
2021/08/22 03:05:48;;;;;;;1.57;1.47;;;20.00;99.90;;;;;;5037240;28;20531;-46
2021/08/22 03:08:19;;;;;;;1.80;1.30;;;19.90;99.90;;;;;;5037337;28;20520;-42
2021/08/22 03:10:50;;;;;;;1.20;1.10;;;19.80;99.90;;;;;;5044171;28;20465;-39
2021/08/22 03:13:21;;;;;;;3.60;1.53;;;19.90;99.90;;;;;;5035407;28;20432;-44
2021/08/22 03:15:52;;;;;;;1.47;1.37;;;19.70;99.90;;;;;;5037296;28;20457;-41
2021/08/22 03:18:24;;;;;;;1.53;1.43;;;19.70;99.90;;;;;;5036600;28;20461;-42
2021/08/22 03:20:57;;;;;;;1.93;1.53;;;19.70;99.90;;;;;;5038956;28;20529;-42
2021/08/22 03:23:28;;;;;;;3.00;1.77;;;19.80;99.90;;;;;;5040672;28;20464;-41
2021/08/22 03:25:59;;;;;;;1.77;1.67;;;19.70;99.90;;;;;;5039265;28;20498;-48
2021/08/22 03:28:30;;;;;;;1.83;1.50;;;19.80;99.90;;;;;;5039667;28;20460;-43
2021/08/22 03:31:01;;;;;;;1.87;1.77;;;19.70;99.90;;;;;;5038344;28;20479;-41
2021/08/22 03:33:32;;;;;;;1.50;1.40;;;19.60;99.90;;;;;;5046791;28;20890;-42
2021/08/22 03:36:06;;;;;;;2.63;1.60;;;19.60;99.90;;;;;;5034806;28;20474;-47
2021/08/22 03:38:37;;;;;;;1.97;1.53;;;19.50;99.90;;;;;;5037574;28;20472;-45
2021/08/22 03:41:08;;;;;;;1.73;1.63;;;19.50;99.90;;;;;;5048599;28;20522;-44
2021/08/22 03:43:39;;;;;;;1.70;1.60;;;19.50;99.90;;;;;;5036854;28;20477;-47
2021/08/22 03:46:10;;;;;;;1.63;1.53;;;19.50;99.90;;;;;;5042066;27;20840;-46
2021/08/22 03:48:41;;;;;;;1.80;1.50;;;19.50;99.90;;;;;;5060685;28;20583;-42
2021/08/22 03:51:13;;;;;;;1.80;1.70;;;19.50;99.90;;;;;;5050015;28;20579;-44
2021/08/22 03:53:44;;;;;;;2.30;2.10;;;19.50;99.90;;;;;;5040386;28;20513;-43
2021/08/22 03:56:17;;;;;;;2.90;2.20;;;19.50;99.90;;;;;;5053495;28;20485;-42
2021/08/22 03:58:48;;;;;;;2.20;2.07;;;19.50;99.90;;;;;;5057865;28;20504;-42
2021/08/22 04:01:19;;;;;;;2.90;2.10;;;19.50;99.90;;;;;;5047879;28;20832;-46
2021/08/22 04:03:51;;;;;;;2.47;2.27;;;19.40;99.90;;;;;;5051108;28;21014;-42
2021/08/22 04:06:25;;;;;;;2.50;2.30;;;19.30;99.90;;;;;;5057083;28;20461;-43
2021/08/22 04:08:56;;;;;;;2.67;2.20;;;19.30;99.90;;;;;;5058510;28;20503;-42
2021/08/22 04:11:27;;;;;;;3.93;2.70;;;19.30;99.90;;;;;;5054718;28;20453;-44
2021/08/22 04:13:59;;;;;;;3.00;2.50;;;19.30;99.90;;;;;;5046928;28;20448;-42
2021/08/22 04:16:29;;;;;;;2.90;2.60;;;19.30;99.90;;;;;;5047665;28;20470;-44
2021/08/22 04:19:01;;;;;;;2.40;2.17;;;19.30;99.90;;;;;;5051379;28;20457;-44
2021/08/22 04:21:35;;;;;;;3.40;3.10;;;19.30;99.90;;;;;;5052046;28;20533;-41
2021/08/22 04:24:06;;;;;;;5.43;2.87;;;19.20;99.90;;;;;;5040928;28;20484;-46
2021/08/22 04:26:39;;;;;;;2.60;2.40;;;19.30;99.90;;;;;;5048870;27;20460;-41
2021/08/22 04:29:12;;;;;;;3.93;2.80;;;19.30;99.90;;;;;;5027894;28;20488;-44
2021/08/22 04:31:43;;;;;;;3.40;3.13;;;19.20;99.90;;;;;;5048320;28;20456;-42
2021/08/22 04:34:15;;;;;;;2.60;2.40;;;19.20;99.90;;;;;;5039919;28;20423;-42
2021/08/22 04:36:47;;;;;;;5.07;3.27;;;19.20;99.90;;;;;;5037072;28;20458;-44
2021/08/22 04:39:18;;;;;;;3.53;2.70;;;19.20;99.90;;;;;;5047845;27;20456;-43
2021/08/22 04:41:49;;;;;;;3.50;3.20;;;19.20;99.90;;;;;;5060467;28;20584;-44
2021/08/22 04:44:20;;;;;;;4.20;2.80;;;19.10;99.90;;;;;;5041583;28;20461;-40
2021/08/22 04:46:51;;;;;;;2.60;2.40;;;19.10;99.90;;;;;;5041963;28;20545;-42
2021/08/22 04:49:22;;;;;;;3.97;2.83;;;19.00;99.90;;;;;;5040703;28;20520;-42
2021/08/22 04:51:55;;;;;;;3.23;2.97;;;19.00;99.90;;;;;;5041166;28;20536;-42
2021/08/22 04:54:26;;;;;;;3.60;2.90;;;19.00;99.90;;;;;;5039148;28;20538;-41
2021/08/22 04:56:57;;;;;;;2.70;2.50;;;19.00;99.90;;;;;;5040892;28;20501;-42
2021/08/22 04:59:28;;;;;;;4.80;2.63;;;18.90;99.90;;;;;;5040453;28;20502;-42
2021/08/22 05:01:59;;;;;;;2.83;2.63;;;18.90;99.90;;;;;;5042202;28;20442;-44
2021/08/22 05:04:30;;;;;;;3.10;2.80;;;18.90;99.90;;;;;;5040802;28;20520;-41
2021/08/22 05:07:03;;;;;;;2.63;2.43;;;18.90;99.90;;;;;;5040506;28;20470;-42
2021/08/22 05:09:34;;;;;;;2.57;2.37;;;18.90;99.90;;;;;;5048928;28;20489;-42
2021/08/22 05:12:06;;;;;;;3.50;2.90;;;18.90;99.90;;;;;;5040387;28;20457;-43
2021/08/22 05:14:37;;;;;;;5.90;2.87;;;18.90;99.90;;;;;;5040967;28;20481;-43
2021/08/22 05:17:08;;;;;;;2.70;2.50;;;18.80;99.90;;;;;;5051577;28;20803;-46
2021/08/22 05:19:39;;;;;;;3.20;2.90;;;18.90;99.90;;;;;;5054965;28;20553;-41
2021/08/22 05:22:12;;;;;;;4.00;3.70;;;18.90;99.90;;;;;;5043170;28;20450;-48
2021/08/22 05:24:43;;;;;;;3.57;3.27;;;18.80;99.90;;;;;;5059392;28;20453;-48
2021/08/22 05:27:14;;;;;;;4.43;2.90;;;18.70;99.90;;;;;;5047848;28;20453;-45
2021/08/22 05:29:45;;;;;;;3.87;3.40;;;18.70;99.90;;;;;;5053880;28;20512;-45
2021/08/22 05:32:16;;;;;;;3.93;3.00;;;18.60;99.90;;;;;;5040242;28;20453;-43
2021/08/22 05:34:47;;;;;;;4.27;3.40;;;18.50;99.90;;;;;;5039970;28;20449;-42
2021/08/22 05:37:20;;;;;;;3.90;3.60;;;18.40;99.90;;;;;;5039284;28;20478;-43
2021/08/22 05:39:51;;;;;;;3.50;3.20;;;18.30;99.90;;;;;;5055489;28;20455;-43
2021/08/22 05:42:22;;;;;;;3.87;3.57;;;18.20;99.90;;;;;;5041998;28;20495;-43
2021/08/22 05:44:52;;;;;;;3.40;3.10;;;18.20;99.90;;;;;;5040528;28;20488;-46
2021/08/22 05:47:24;;;;;;;3.53;3.17;;;18.10;99.90;;;;;;5039375;28;20464;-42
2021/08/22 05:49:55;;;;;;;3.57;3.27;;;17.90;99.90;;;;;;5040273;28;20626;-41
2021/08/22 05:52:27;;;;;;;3.80;3.40;;;17.70;99.90;;;;;;5025829;28;20460;-42
2021/08/22 05:54:58;;;;;;;3.37;3.07;;;17.70;99.90;;;;;;5039436;28;20477;-45
2021/08/22 05:57:29;;;;;;;4.10;3.80;;;17.60;99.90;;;;;;5037947;28;20450;-45
2021/08/22 06:00:00;;;;;;;3.80;3.50;;;17.50;99.90;;;;;;5055104;28;20472;-42
2021/08/22 06:02:31;;;;;;;3.00;2.80;;;17.40;99.90;;;;;;5040463;28;20454;-41
2021/08/22 06:05:03;;;;;;;3.10;2.80;;;17.40;99.90;;;;;;5040234;28;20453;-41
2021/08/22 06:07:35;;;;;;;3.70;3.40;;;17.30;99.90;;;;;;5049277;28;20453;-42
2021/08/22 06:10:07;;;;;;;4.40;3.33;;;17.20;99.90;;;;;;5038456;28;20876;-42
2021/08/22 06:12:38;;;;;;;4.13;3.83;;;17.20;99.90;;;;;;5048686;28;20460;-47
2021/08/22 06:15:10;;;;;;;7.37;4.10;;;17.10;99.90;;;;;;5059422;28;20445;-47
2021/08/22 06:17:41;;;;;;;3.93;3.63;;;17.00;99.90;;;;;;5038839;28;20513;-49
2021/08/22 06:20:14;;;;;;;4.13;3.20;;;16.90;99.90;;;;;;5038587;28;20484;-41
2021/08/22 06:22:47;;;;;;;4.07;3.40;;;16.80;99.90;;;;;;5038974;28;20815;-46
2021/08/22 06:25:20;;;;;;;4.30;3.90;;;16.80;99.90;;;;;;5039199;28;20456;-46
2021/08/22 06:27:51;;;;;;;3.53;3.10;;;16.80;99.90;;;;;;5044900;28;20453;-45
2021/08/22 06:30:22;;;;;;;3.67;3.37;;;16.80;99.90;;;;;;5043854;28;20520;-43
2021/08/22 06:32:53;;;;;;;4.33;3.43;;;16.70;99.90;;;;;;5045334;28;20489;-46
2021/08/22 06:35:24;;;;;;;3.97;3.57;;;16.70;99.90;;;;;;5039218;28;20459;-47
2021/08/22 06:37:57;;;;;;;3.60;3.30;;;16.80;99.90;;;;;;5039750;28;20583;-43
2021/08/22 06:40:28;;;;;;;3.57;3.27;;;16.80;99.90;;;;;;5043972;28;20532;-48
2021/08/22 06:42:59;;;;;;;4.23;3.80;;;16.90;99.90;;;;;;5039280;28;20446;-49
2021/08/22 06:45:30;;;;;;;3.87;3.57;;;16.90;99.90;;;;;;5039402;28;20515;-46
2021/08/22 06:48:01;;;;;;;4.93;4.40;;;16.90;99.90;;;;;;5039659;28;20490;-46
2021/08/22 06:50:32;;;;;;;3.87;3.47;;;17.00;99.90;;;;;;5041924;28;20484;-41
2021/08/22 06:53:05;;;;;;;5.10;4.00;;;17.00;99.90;;;;;;5054416;28;20456;-42
2021/08/22 06:55:35;;;;;;;4.40;4.00;;;17.10;99.90;;;;;;5040767;28;20524;-48
2021/08/22 06:58:06;;;;;;;4.00;3.60;;;17.10;99.90;;;;;;5037578;28;20477;-47
2021/08/22 07:00:37;;;;;;;4.07;3.67;;;17.20;99.90;;;;;;5041719;28;20457;-45
2021/08/22 07:03:09;;;;;;;3.93;3.63;;;17.10;99.90;;;;;;5051451;28;20529;-49
2021/08/22 07:05:40;;;;;;;4.20;3.67;;;17.20;99.90;;;;;;5047328;28;20457;-44
2021/08/22 07:08:13;;;;;;;4.40;3.13;;;17.10;99.90;;;;;;5042026;28;20551;-47
2021/08/22 07:10:44;;;;;;;3.57;3.27;;;17.10;99.90;;;;;;5050688;28;20489;-47
2021/08/22 07:13:15;;;;;;;3.93;3.63;;;17.10;99.90;;;;;;5047270;28;20456;-44
2021/08/22 07:15:46;;;;;;;4.27;3.90;;;17.10;99.90;;;;;;5042521;28;20522;-48
2021/08/22 07:18:17;;;;;;;3.87;3.50;;;17.10;99.90;;;;;;5050839;28;20459;-50
2021/08/22 07:20:49;;;;;;;3.97;3.60;;;17.10;99.90;;;;;;5046031;28;20518;-49
2021/08/22 07:23:22;;;;;;;3.73;3.43;;;17.10;99.90;;;;;;5042365;28;20517;-42
2021/08/22 07:25:53;;;;;;;4.40;3.80;;;17.10;99.90;;;;;;5056234;28;20438;-46
2021/08/22 07:28:24;;;;;;;3.67;3.37;;;17.10;99.90;;;;;;5042775;28;20506;-47
2021/08/22 07:30:55;;;;;;;4.00;3.70;;;17.10;99.90;;;;;;5042822;28;20546;-44
2021/08/22 07:33:26;;;;;;;4.13;3.73;;;17.00;99.90;;;;;;5041184;28;20985;-47
2021/08/22 07:35:57;;;;;;;4.80;4.40;;;17.10;99.90;;;;;;5039477;28;20913;-43
2021/08/22 07:38:29;;;;;;;3.87;3.57;;;17.10;99.90;;;;;;5050551;28;20472;-46
2021/08/22 07:41:00;;;;;;;4.33;4.00;;;17.20;99.90;;;;;;5057721;28;20476;-46
2021/08/22 07:43:31;;;;;;;4.43;4.00;;;17.20;99.90;;;;;;5061662;28;20754;-45
2021/08/22 07:46:03;;;;;;;4.30;3.90;;;17.20;99.90;;;;;;5049590;28;20499;-45
2021/08/22 07:48:34;;;;;;;4.33;3.93;;;17.20;99.90;;;;;;5041561;28;20460;-51
2021/08/22 07:51:05;;;;;;;3.87;3.53;;;17.20;99.90;;;;;;5036733;28;20481;-51
2021/08/22 07:53:37;;;;;;;5.00;4.50;;;17.10;99.90;;;;;;5048965;28;20468;-50
2021/08/22 07:56:08;;;;;;;4.83;4.43;;;17.10;99.90;;;;;;5033491;28;20444;-50
2021/08/22 07:58:40;;;;;;;4.43;4.03;;;17.20;99.90;;;;;;5041385;28;20449;-48
2021/08/22 08:01:11;;;;;;;4.40;4.10;;;17.30;99.90;;;;;;5045394;28;20476;-47
2021/08/22 08:03:42;;;;;;;5.10;3.60;;;17.20;99.90;;;;;;5053398;28;20467;-51
2021/08/22 08:06:13;;;;;;;5.33;4.83;;;17.30;99.90;;;;;;5043024;28;20485;-49
2021/08/22 08:08:46;;;;;;;4.87;4.47;;;17.30;99.90;;;;;;5041112;28;20487;-51
2021/08/22 08:11:17;;;;;;;4.43;3.80;;;17.30;99.90;;;;;;5045288;28;21165;-42
2021/08/22 08:13:48;;;;;;;4.60;3.93;;;17.40;99.90;;;;;;5061509;28;20441;-49
2021/08/22 08:16:19;;;;;;;4.13;3.80;;;17.40;99.90;;;;;;5057007;28;20481;-49
2021/08/22 08:18:50;;;;;;;4.60;4.17;;;17.30;99.90;;;;;;5041554;28;20464;-46
2021/08/22 08:21:21;;;;;;;4.70;4.20;;;17.40;99.90;;;;;;5041003;28;20485;-47
2021/08/22 08:23:54;;;;;;;4.73;4.33;;;17.40;99.90;;;;;;5040748;28;20573;-46
2021/08/22 08:26:25;;;;;;;4.53;4.13;;;17.30;99.90;;;;;;5041410;28;20441;-43
2021/08/22 08:28:58;;;;;;;4.93;4.43;;;17.30;99.90;;;;;;5041458;28;20441;-50
2021/08/22 08:31:29;;;;;;;4.93;4.50;;;17.40;99.90;;;;;;5048581;28;20493;-47
2021/08/22 08:34:00;;;;;;;5.00;4.60;;;17.40;99.90;;;;;;5026148;28;20510;-47
2021/08/22 08:36:31;;;;;;;5.13;4.57;;;17.40;99.90;;;;;;5041065;28;20481;-49
2021/08/22 08:39:04;;;;;;;5.40;4.90;;;17.40;99.90;;;;;;5049413;28;20473;-48
2021/08/22 08:41:35;;;;;;;5.53;5.13;;;17.30;99.90;;;;;;5044317;28;20478;-44
2021/08/22 08:44:07;;;;;;;5.47;4.90;;;17.30;99.90;;;;;;5047878;28;20499;-47
2021/08/22 08:46:39;;;;;;;6.10;5.37;;;17.30;99.90;;;;;;5040836;28;20475;-44
2021/08/22 08:49:10;;;;;;;6.70;5.30;;;17.30;99.90;;;;;;5038779;28;20454;-47
2021/08/22 08:51:53;;;;;;;5.57;5.10;;;17.30;99.90;;;;;;5053061;28;20567;-50
2021/08/22 08:54:27;;;;;;;5.27;4.87;;;17.20;99.90;;;;;;5048069;28;20449;-50
2021/08/22 08:56:58;;;;;;;5.17;4.00;;;17.20;99.90;;;;;;5040181;28;20444;-43
2021/08/22 08:59:29;;;;;;;5.07;4.57;;;17.30;99.90;;;;;;5039410;28;20446;-50
2021/08/22 09:02:00;;;;;;;4.73;4.33;;;17.20;99.90;;;;;;5051085;28;20485;-44
2021/08/22 09:04:33;;;;;;;5.20;4.73;;;17.30;99.90;;;;;;5047966;28;20477;-42
2021/08/22 09:07:46;;;;;;;5.77;5.17;;;17.30;99.90;;;;;;5040679;28;20453;-45
2021/08/22 09:10:49;;;;;;;6.80;4.63;;;17.30;99.90;;;;;;5040038;28;21020;-45
2021/08/22 09:13:57;;;;;;;4.53;4.13;;;17.20;99.90;;;;;;5032517;28;20480;-49
2021/08/22 09:17:15;;;;;;;5.17;4.60;;;17.30;99.90;;;;;;5042348;28;20454;-47
2021/08/22 09:20:40;;;;;;;5.60;4.07;;;17.30;99.90;;;;;;5043684;28;20937;-44
2021/08/22 09:23:47;;;;;;;4.93;4.50;;;17.30;99.90;;;;;;5078716;28;20444;-48
2021/08/22 09:26:59;;;;;;;6.07;4.57;;;17.20;99.90;;;;;;5074674;28;20466;-50
2021/08/22 09:30:17;;;;;;;4.63;4.10;;;17.20;99.90;;;;;;5074551;28;20494;-43
2021/08/22 09:33:38;;;;;;;4.83;4.07;;;17.10;99.90;;;;;;5067672;28;20447;-45
2021/08/22 09:36:44;;;;;;;5.00;4.50;;;17.20;99.90;;;;;;5080348;28;20463;-45
2021/08/22 09:40:08;;;;;;;4.63;4.13;;;17.20;99.90;;;;;;5067084;28;20442;-46
2021/08/22 09:43:14;;;;;;;4.80;4.37;;;17.10;99.90;;;;;;5078922;28;20472;-47
2021/08/22 09:46:20;;;;;;;5.27;4.60;;;17.20;99.90;;;;;;5080904;28;20447;-46
2021/08/22 09:49:29;;;;;;;5.23;4.47;;;17.10;99.90;;;;;;5080483;28;20443;-45
2021/08/22 09:52:37;;;;;;;4.93;4.40;;;17.10;99.90;;;;;;5090717;28;20498;-41
2021/08/22 09:55:54;;;;;;;4.20;3.90;;;17.10;99.90;;;;;;5087969;28;20436;-45
2021/08/22 09:59:00;;;;;;;5.10;4.60;;;17.10;99.90;;;;;;5069410;28;20449;-41
2021/08/22 10:01:57;;;;;;;4.03;3.63;;;17.10;99.90;;;;;;5042948;28;20568;-43
2021/08/22 10:04:58;;;;;;;5.03;4.27;;;17.10;99.90;;;;;;5076761;28;20454;-46
2021/08/22 10:07:47;;;;;;;4.70;4.40;;;17.00;99.90;;;;;;5039928;28;20526;-48
2021/08/22 10:10:19;;;;;;;4.83;4.10;;;17.00;99.90;;;;;;5048843;28;20512;-44
2021/08/22 10:12:52;;;;;;;4.80;4.40;;;17.10;99.90;;;;;;5039295;28;20478;-48
2021/08/22 10:15:25;;;;;;;4.07;3.63;;;17.00;99.90;;;;;;5039892;28;20532;-43
2021/08/22 10:17:56;;;;;;;6.30;4.13;;;17.00;99.90;;;;;;5050602;28;20484;-43
2021/08/22 10:20:47;;;;;;;4.00;3.70;;;17.00;99.90;;;;;;5051343;28;20484;-46
2021/08/22 10:23:55;;;;;;;4.43;4.03;;;17.00;99.90;;;;;;5032348;28;20854;-48
2021/08/22 10:26:56;;;;;;;4.17;3.87;;;17.00;99.90;;;;;;5099785;28;21066;-48
2021/08/22 10:29:30;;;;;;;4.87;4.47;;;17.10;99.90;;;;;;5079622;28;20482;-45
2021/08/22 10:32:11;;;;;;;4.73;4.33;;;17.10;99.90;;;;;;5097148;28;21034;-45
2021/08/22 10:34:43;;;;;;;4.63;4.20;;;17.00;99.90;;;;;;5090430;28;20450;-47
2021/08/22 10:37:33;;;;;;;4.00;3.70;;;17.00;99.90;;;;;;5097660;28;20459;-48
2021/08/22 10:40:35;;;;;;;4.30;3.80;;;16.90;99.90;;;;;;5093525;28;20485;-43
2021/08/22 10:43:35;;;;;;;5.03;4.17;;;16.90;99.90;;;;;;5103902;28;20465;-45
2021/08/22 10:46:07;;;;;;;4.57;4.17;;;17.00;99.90;;;;;;5098343;28;20473;-42
2021/08/22 10:48:52;;;;;;;4.67;4.27;;;17.00;99.90;;;;;;5096453;28;20491;-46
2021/08/22 10:51:24;;;;;;;4.07;3.77;;;17.00;99.90;;;;;;5096855;28;20601;-44
2021/08/22 10:54:21;;;;;;;4.80;4.40;;;17.00;99.90;;;;;;5103184;28;21026;-47
2021/08/22 10:56:52;;;;;;;4.53;4.00;;;17.10;99.90;;;;;;5084396;28;20441;-45
2021/08/22 10:59:23;;;;;;;4.03;3.73;;;17.00;99.90;;;;;;5041734;28;20579;-42
2021/08/22 11:02:11;;;;;;;4.47;4.07;;;17.00;99.90;;;;;;5042463;28;20437;-45
2021/08/22 11:04:43;;;;;;;4.20;3.80;;;17.00;99.90;;;;;;5033187;28;20455;-47
2021/08/22 11:07:14;;;;;;;4.37;3.97;;;17.00;99.90;;;;;;5042577;28;20457;-43
2021/08/22 11:09:45;;;;;;;4.30;3.90;;;17.00;99.90;;;;;;5057456;28;20456;-42
2021/08/22 11:12:27;;;;;;;5.67;4.10;;;17.00;99.90;;;;;;5058023;28;20485;-44
2021/08/22 11:15:00;;;;;;;4.37;3.97;;;16.90;99.90;;;;;;5042138;28;20537;-41
2021/08/22 11:17:33;;;;;;;4.93;4.40;;;16.90;99.90;;;;;;5049251;28;20449;-41
2021/08/22 11:20:12;;;;;;;4.23;3.67;;;17.00;99.90;;;;;;5059656;28;20496;-42
2021/08/22 11:22:43;;;;;;;4.20;3.90;;;17.00;99.90;;;;;;5054821;28;20441;-40
2021/08/22 11:25:15;;;;;;;4.90;4.50;;;17.00;99.90;;;;;;5042688;28;20452;-47
2021/08/22 11:27:48;;;;;;;4.33;3.93;;;17.00;99.90;;;;;;5045502;28;20552;-44
2021/08/22 11:30:18;;;;;;;4.07;3.67;;;17.00;99.90;;;;;;5048495;28;20446;-41
2021/08/22 11:32:54;;;;;;;5.10;4.70;;;17.00;99.90;;;;;;5053906;28;20477;-41
2021/08/22 11:35:26;;;;;;;4.50;4.10;;;16.90;99.90;;;;;;5042329;28;20461;-41
2021/08/22 11:38:00;;;;;;;4.57;4.17;;;16.90;99.90;;;;;;5041513;28;20485;-40
2021/08/22 11:40:32;;;;;;;5.33;4.57;;;16.90;99.90;;;;;;5041965;28;20441;-41
2021/08/22 11:43:05;;;;;;;3.60;3.30;;;16.90;99.90;;;;;;5051293;28;20496;-41
2021/08/22 11:45:37;;;;;;;4.60;4.20;;;16.90;99.90;;;;;;5043548;28;20462;-41
2021/08/22 11:48:17;;;;;;;5.40;4.30;;;16.90;99.90;;;;;;5049305;28;20480;-42
2021/08/22 11:50:49;;;;;;;4.57;4.20;;;16.90;99.90;;;;;;5042235;28;20546;-41
2021/08/22 11:53:29;;;;;;;4.90;4.40;;;16.90;99.90;;;;;;5052764;28;20483;-44
2021/08/22 11:56:00;;;;;;;6.80;4.50;;;16.90;99.90;;;;;;5040333;28;20453;-43
2021/08/22 11:58:35;;;;;;;4.70;4.30;;;16.90;99.90;;;;;;5041720;28;20452;-49
2021/08/22 12:01:18;;;;;;;3.90;3.60;;;16.80;99.90;;;;;;5041009;28;20452;-50
2021/08/22 12:04:08;;;;;;;5.30;4.80;;;16.90;99.90;;;;;;5042128;28;20458;-46
2021/08/22 12:06:39;;;;;;;4.37;4.07;;;16.90;99.90;;;;;;5029063;28;20470;-45
2021/08/22 12:09:19;;;;;;;4.73;4.33;;;16.90;99.90;;;;;;5050887;28;20963;-49
2021/08/22 12:11:51;;;;;;;4.10;3.70;;;16.80;99.90;;;;;;5042781;28;20485;-48
2021/08/22 12:14:22;;;;;;;7.20;4.10;;;16.80;99.90;;;;;;5041681;28;20531;-47
2021/08/22 12:16:59;;;;;;;4.43;4.03;;;16.80;99.90;;;;;;5041976;28;20473;-50
2021/08/22 12:19:32;;;;;;;4.87;4.47;;;16.80;99.90;;;;;;5045565;28;20452;-49
2021/08/22 12:22:11;;;;;;;5.10;4.43;;;16.80;99.90;;;;;;5042071;28;20449;-47
2021/08/22 12:24:47;;;;;;;4.77;4.27;;;16.80;99.90;;;;;;5047737;28;20537;-49
2021/08/22 12:27:29;;;;;;;5.40;4.73;;;16.80;99.90;;;;;;5041422;28;20449;-50
2021/08/22 12:30:11;;;;;;;5.73;4.23;;;16.80;99.90;;;;;;5046696;28;20552;-48
2021/08/22 12:32:42;;;;;;;4.03;3.63;;;16.80;99.90;;;;;;5049437;28;20509;-48
2021/08/22 12:35:15;;;;;;;4.30;4.00;;;16.80;99.90;;;;;;5041693;28;20458;-50
2021/08/22 12:37:46;;;;;;;4.73;4.33;;;16.80;99.90;;;;;;5040381;28;20481;-44
2021/08/22 12:40:24;;;;;;;3.90;3.53;;;16.80;99.90;;;;;;5042443;28;20464;-49
2021/08/22 12:42:55;;;;;;;4.20;3.80;;;16.80;99.90;;;;;;5040108;28;20453;-50
2021/08/22 12:45:26;;;;;;;4.10;3.80;;;16.80;99.90;;;;;;5041308;28;20542;-49
2021/08/22 12:47:57;;;;;;;5.07;4.67;;;16.80;99.90;;;;;;5047890;28;20519;-50
2021/08/22 12:50:30;;;;;;;4.20;3.90;;;16.90;99.90;;;;;;5042485;28;20476;-48
2021/08/22 12:53:01;;;;;;;5.23;4.83;;;16.90;99.90;;;;;;5039554;28;20485;-49
2021/08/22 12:55:32;;;;;;;3.97;3.57;;;16.80;99.90;;;;;;5048319;28;20482;-49
2021/08/22 12:58:03;;;;;;;4.33;3.93;;;16.80;99.90;;;;;;5039445;28;20498;-50
2021/08/22 13:00:33;;;;;;;4.30;3.90;;;16.80;99.90;;;;;;5040269;28;20492;-50
2021/08/22 13:03:05;;;;;;;4.73;4.13;;;16.80;99.90;;;;;;5051507;28;20475;-47
2021/08/22 13:05:38;;;;;;;4.43;4.03;;;16.80;99.90;;;;;;5054180;28;20575;-50
2021/08/22 13:08:09;;;;;;;4.30;3.90;;;16.80;99.90;;;;;;5055366;28;20463;-47
2021/08/22 13:10:40;;;;;;;4.57;3.90;;;16.80;99.90;;;;;;5049728;28;20461;-45
2021/08/22 13:13:11;;;;;;;4.37;3.97;;;16.80;99.90;;;;;;5030843;28;20488;-44
2021/08/22 13:15:42;;;;;;;4.43;4.13;;;16.80;99.90;;;;;;5042325;28;20514;-46
2021/08/22 13:18:13;;;;;;;3.93;3.63;;;16.80;99.90;;;;;;5040733;28;20495;-48
2021/08/22 13:20:47;;;;;;;4.17;3.77;;;16.80;99.90;;;;;;5041030;28;20505;-42
2021/08/22 13:23:19;;;;;;;4.57;4.17;;;16.80;99.90;;;;;;5044446;28;20457;-49
2021/08/22 13:25:50;;;;;;;4.50;4.10;;;16.80;99.90;;;;;;5050377;28;20472;-51
2021/08/22 13:28:21;;;;;;;4.10;3.80;;;16.80;99.90;;;;;;5047411;27;20480;-47
2021/08/22 13:30:52;;;;;;;3.93;3.63;;;16.80;99.90;;;;;;5057015;28;21120;-45